Strona główna
METAR-TAF:

METAR-TAF

Lotnisko :

Oslo, Norwegia

Port lotniczy Oslo-Gardermoen

Szerokość geograficzna: 60-12N, Długość geograficzna: 011-05E, wysokość: 208 m

Aktualna obserwacja pogody

Raport powstał 16 minut temu, godzina 03:20 UTC
Wiatr 3 kt od północno-północny wschód
Temperatura -4°C
Wilgotność 93%
Ciśnienie 991 hPa
Widzialność 10 km lub więcej
Mało chmury na wysokości 800 ft
Zachmurzenie całkowite na wysokości 1500 ft
słaby śnieg

METAR: ENGM 180320Z 03003KT 9999 -SN FEW008 OVC015 M04/M05 Q0991

czas: 04:36 (03:36 UTC)

Prognoza

Prognoza ważna od 18 godzina 00 UTC do 18 godzina 24 UTC
Wiatr 5 kt od północny wschód
Widzialność 10 km lub więcej
Mało chmury na wysokości 800 ft
Zachmurzenie całkowite na wysokości 1800 ft
słaby śnieg
Przejściowo
od 18 godzina 00 UTC do 18 godzina 18 UTC
Widzialność: 2500 m
na wysokości 800 ft
słaby śnieg

TAF: ENGM 1800/1824 04005KT 9999 -SN FEW008 OVC018 TEMPO 1800/1818 2500 -SN VV008

Obserwacja i prognoza pogody dla ponad 4000 lotnisk (raport METAR i TAF).

Dostępne stacje oznaczono żółtymi i czerwonymi punktami na mapie.

Najedź kursorem aby zobaczyć nazwę stacji.

Kliknij aby zobaczyć obserwacje i prognozy pogody.

Aby zmienić mapę: kliknij na zielony przycisk z czarnym krzyżykiem, aby powiększyć; na zielony przycisk z myślnikiem, aby pomniejszyć; na zielone strzałki, aby przejść do map sąsiednich.


METAR-TAF: